Hickam AFB, Hawaii
Current Conditions -  °F | °C
As of 3:53 AM on Sunday 21 Dec 2014 (Local Time) from PHNL Reporting Station
Scattered Clouds Scattered Clouds  
Wind Chill: 70°   Ceiling: Unl
Heat Index: 70°   Visibility: 10mi
Dew Point: 66°   Wind: 3mph
Humidity: 87%   Direction: 310°NW
Pressure: 30"   Gusts: NA
Location:  21.31°N, 157.93°W
Report Text: PHNL 211353Z 31003KT 10SM FEW030 SCT060 21/19 A3000 RMK AO2 SLP158 T02110189
Loading
Personal Weather Stations






























Interactive Weather Map New forecast layout! Learn more

10-Day Weather Forecast

Advertisements
Track Severe Weather on mobile